Time;durP1;ratioP1;P1;durP2;ratioP2;P2;SDS_P1;SDS_P2;PMS_P1;PMS_P2;Temp;Humidity;BMP_temperature;BMP_pressure;BME280_temperature;BME280_humidity;BME280_pressure;Samples;Min_cycle;Max_cycle;Signal;HPM_P1;HPM_P2
2023/08/29 00:00:13;;;;;;;2.58;0.90;;;12.90;99.90;;;;;;5031626;28;20474;-77
2023/08/29 00:02:41;;;;;;;2.33;1.00;;;12.80;99.90;;;;;;5031483;28;20085;-77
2023/08/29 00:05:08;;;;;;;2.25;1.25;;;12.80;99.90;;;;;;5031578;28;20087;-78
2023/08/29 00:07:33;;;;;;;1.98;1.30;;;12.70;99.90;;;;;;5031613;28;20063;-77
2023/08/29 00:09:59;;;;;;;3.03;1.00;;;12.70;99.90;;;;;;5048127;28;20482;-77
2023/08/29 00:12:24;;;;;;;1.95;1.08;;;12.70;99.90;;;;;;5016014;28;20974;-77
2023/08/29 00:14:50;;;;;;;1.90;1.10;;;12.70;99.90;;;;;;5033908;28;20059;-78
2023/08/29 00:17:16;;;;;;;2.05;1.10;;;12.60;99.90;;;;;;5034962;28;20095;-78
2023/08/29 00:19:42;;;;;;;2.63;1.25;;;12.60;99.90;;;;;;5035002;28;20048;-77
2023/08/29 00:22:07;;;;;;;2.08;1.30;;;12.50;99.90;;;;;;5035235;28;20056;-77
2023/08/29 00:24:33;;;;;;;3.22;1.02;;;12.50;99.90;;;;;;5034936;28;20047;-77
2023/08/29 00:26:59;;;;;;;1.10;0.65;;;12.40;99.90;;;;;;5034865;28;20476;-77
2023/08/29 00:29:26;;;;;;;2.00;1.25;;;12.50;99.90;;;;;;5035033;28;20080;-77
2023/08/29 00:31:52;;;;;;;2.13;1.00;;;12.50;99.90;;;;;;5035240;28;20053;-77
2023/08/29 00:34:17;;;;;;;1.98;0.70;;;12.50;99.90;;;;;;5034821;28;20041;-76
2023/08/29 00:36:43;;;;;;;1.80;0.70;;;12.50;99.90;;;;;;5036166;28;20045;-76
2023/08/29 00:39:08;;;;;;;1.20;0.82;;;12.50;99.90;;;;;;5051430;28;20041;-77
2023/08/29 00:41:34;;;;;;;1.13;0.77;;;12.40;99.90;;;;;;5051446;28;20509;-76
2023/08/29 00:43:59;;;;;;;1.63;1.05;;;12.30;99.90;;;;;;5034660;28;20393;-76
2023/08/29 00:46:26;;;;;;;2.15;1.13;;;12.30;99.90;;;;;;5034676;28;20041;-77
2023/08/29 00:48:52;;;;;;;1.90;0.73;;;12.20;99.90;;;;;;5051346;28;20550;-76
2023/08/29 00:51:18;;;;;;;1.45;0.90;;;12.20;99.90;;;;;;5035985;28;20120;-76
2023/08/29 00:53:44;;;;;;;1.23;0.82;;;12.20;99.90;;;;;;5035774;28;20045;-77
2023/08/29 00:56:12;;;;;;;1.70;1.02;;;12.10;99.90;;;;;;5035814;28;20160;-77
2023/08/29 00:58:37;;;;;;;4.22;1.10;;;12.10;99.90;;;;;;5035840;28;20088;-77
2023/08/29 01:01:03;;;;;;;2.25;1.00;;;12.00;99.90;;;;;;5034512;28;20041;-77
2023/08/29 01:03:30;;;;;;;2.50;1.10;;;11.90;99.90;;;;;;5034289;28;20037;-77
2023/08/29 01:05:56;;;;;;;1.42;0.82;;;11.90;99.90;;;;;;5017845;28;20053;-77
2023/08/29 01:08:22;;;;;;;2.08;1.05;;;11.90;99.90;;;;;;5034351;28;20486;-77
2023/08/29 01:11:06;;;;;;;0.98;0.88;;;11.90;99.90;;;;;;5050857;28;20063;-76
2023/08/29 01:14:09;;;;;;;1.90;0.52;;;11.90;99.90;;;;;;5034431;28;20045;-76
2023/08/29 01:16:49;;;;;;;2.67;0.70;;;12.00;99.90;;;;;;5034170;28;20038;-77
2023/08/29 01:19:15;;;;;;;1.80;1.00;;;11.90;99.90;;;;;;5035561;28;20053;-77
2023/08/29 01:22:21;;;;;;;2.75;1.13;;;11.90;99.90;;;;;;5034270;28;20048;-76
2023/08/29 01:25:23;;;;;;;2.13;1.00;;;11.90;99.90;;;;;;5017049;28;20034;-77
2023/08/29 01:27:49;;;;;;;1.73;1.10;;;11.90;99.90;;;;;;5016269;28;20061;-77
2023/08/29 01:30:15;;;;;;;5.43;1.25;;;11.80;99.90;;;;;;5017646;28;20045;-77
2023/08/29 01:32:42;;;;;;;1.50;0.63;;;11.90;99.90;;;;;;5034083;28;20046;-77
2023/08/29 01:35:08;;;;;;;1.38;0.70;;;11.90;99.90;;;;;;5017125;28;20038;-77
2023/08/29 01:37:34;;;;;;;0.45;0.38;;;11.90;99.90;;;;;;5050364;28;20046;-77
2023/08/29 01:40:00;;;;;;;0.40;0.40;;;11.90;99.90;;;;;;5033717;28;20180;-77
2023/08/29 01:42:25;;;;;;;1.90;0.60;;;11.90;99.90;;;;;;5017471;28;20052;-77
2023/08/29 01:44:51;;;;;;;1.20;0.30;;;11.90;99.90;;;;;;5050371;28;20038;-77
2023/08/29 01:47:16;;;;;;;0.65;0.57;;;11.90;99.90;;;;;;5033558;28;20041;-76
2023/08/29 01:49:43;;;;;;;2.17;0.68;;;11.80;99.90;;;;;;5033839;28;20498;-76
2023/08/29 01:52:08;;;;;;;0.85;0.50;;;11.80;99.90;;;;;;5050195;28;20040;-76
2023/08/29 01:54:34;;;;;;;0.50;0.50;;;11.80;99.90;;;;;;5033405;28;20041;-75
2023/08/29 01:57:01;;;;;;;1.70;0.73;;;11.80;99.90;;;;;;5016946;28;20041;-77
2023/08/29 01:59:28;;;;;;;1.20;0.60;;;11.80;99.90;;;;;;5016800;28;20063;-76
2023/08/29 02:01:54;;;;;;;1.30;0.40;;;11.80;99.90;;;;;;5033402;28;20116;-77
2023/08/29 02:04:19;;;;;;;1.10;0.73;;;11.60;99.90;;;;;;5049849;28;20125;-76
2023/08/29 02:06:45;;;;;;;2.30;0.70;;;11.70;99.90;;;;;;5033159;28;20512;-76
2023/08/29 02:09:11;;;;;;;1.10;0.80;;;11.60;99.90;;;;;;5033196;28;20458;-76
2023/08/29 02:11:36;;;;;;;2.22;0.80;;;11.50;99.90;;;;;;5033386;28;20041;-76
2023/08/29 02:14:02;;;;;;;2.42;1.00;;;11.50;99.90;;;;;;5032943;28;20037;-76
2023/08/29 02:16:27;;;;;;;1.88;1.15;;;11.40;99.90;;;;;;5033003;28;20401;-76
2023/08/29 02:18:53;;;;;;;3.85;1.10;;;11.40;99.90;;;;;;5032850;28;20045;-76
2023/08/29 02:21:19;;;;;;;4.38;1.67;;;11.40;99.90;;;;;;5016403;28;20037;-76
2023/08/29 02:23:46;;;;;;;3.35;1.73;;;11.40;99.90;;;;;;5016378;28;20040;-76
2023/08/29 02:26:11;;;;;;;2.33;1.38;;;11.40;99.90;;;;;;5033922;28;20044;-76
2023/08/29 02:28:38;;;;;;;2.83;1.40;;;11.40;99.90;;;;;;5016597;28;20034;-76
2023/08/29 02:31:05;;;;;;;2.63;1.40;;;11.40;99.90;;;;;;5049522;28;20052;-76
2023/08/29 02:33:33;;;;;;;2.25;1.33;;;11.40;99.90;;;;;;5016193;28;20045;-76
2023/08/29 02:35:59;;;;;;;2.70;1.40;;;11.30;99.90;;;;;;5032002;28;20059;-76
2023/08/29 02:38:24;;;;;;;2.47;1.38;;;11.30;99.90;;;;;;5032559;28;20037;-76
2023/08/29 02:40:50;;;;;;;2.08;1.20;;;11.30;99.90;;;;;;5032878;28;20033;-77
2023/08/29 02:43:15;;;;;;;1.80;1.08;;;11.30;99.90;;;;;;5049327;28;20493;-76
2023/08/29 02:45:41;;;;;;;1.92;1.00;;;11.30;99.90;;;;;;5032525;28;20033;-77
2023/08/29 02:48:06;;;;;;;1.88;1.00;;;11.30;99.90;;;;;;5033711;28;20117;-76
2023/08/29 02:50:33;;;;;;;1.35;0.88;;;11.30;99.90;;;;;;5033596;28;20045;-77
2023/08/29 02:52:59;;;;;;;1.27;0.90;;;11.20;99.90;;;;;;5032359;28;20508;-76
2023/08/29 02:55:24;;;;;;;1.48;0.93;;;11.30;99.90;;;;;;5032502;28;20037;-76
2023/08/29 02:57:50;;;;;;;1.13;0.90;;;11.20;99.90;;;;;;5048812;28;20401;-77
2023/08/29 03:00:16;;;;;;;0.90;0.80;;;11.30;99.90;;;;;;5033646;28;20041;-76
2023/08/29 03:02:42;;;;;;;1.38;0.73;;;11.30;99.90;;;;;;5033600;28;20485;-77
2023/08/29 03:05:08;;;;;;;0.73;0.60;;;11.20;99.90;;;;;;5032146;28;20119;-77
2023/08/29 03:07:34;;;;;;;0.70;0.60;;;11.20;99.90;;;;;;5015798;28;20041;-77
2023/08/29 03:09:59;;;;;;;2.38;0.75;;;11.20;99.90;;;;;;5032202;28;20046;-76
2023/08/29 03:12:25;;;;;;;0.93;0.47;;;11.10;99.90;;;;;;5015852;28;20037;-76
2023/08/29 03:14:54;;;;;;;0.60;0.60;;;11.00;99.90;;;;;;5015487;28;20079;-76
2023/08/29 03:17:20;;;;;;;0.68;0.60;;;11.00;99.90;;;;;;5031968;28;20041;-76
2023/08/29 03:19:47;;;;;;;0.75;0.50;;;10.90;99.90;;;;;;5048618;28;20041;-76
2023/08/29 03:22:13;;;;;;;2.25;0.55;;;10.90;99.90;;;;;;5032185;28;20141;-76
2023/08/29 03:24:39;;;;;;;0.60;0.47;;;10.90;99.90;;;;;;5032116;28;20109;-76
2023/08/29 03:27:04;;;;;;;1.23;0.77;;;10.90;99.90;;;;;;5031681;28;20049;-76
2023/08/29 03:29:30;;;;;;;0.55;0.50;;;10.90;99.90;;;;;;5048649;28;20114;-76
2023/08/29 03:31:56;;;;;;;1.15;0.75;;;10.80;99.90;;;;;;5031806;28;20450;-77
2023/08/29 03:34:21;;;;;;;1.52;0.60;;;10.80;99.90;;;;;;5031813;28;20038;-77
2023/08/29 03:36:47;;;;;;;0.65;0.60;;;10.80;99.90;;;;;;5032026;28;20040;-76
2023/08/29 03:39:12;;;;;;;0.77;0.50;;;10.70;99.90;;;;;;5031692;28;20046;-76
2023/08/29 03:41:38;;;;;;;1.27;0.68;;;10.70;99.90;;;;;;5031757;28;20044;-76
2023/08/29 03:44:05;;;;;;;1.25;0.77;;;10.70;99.90;;;;;;5048506;28;20075;-76
2023/08/29 03:46:31;;;;;;;2.33;0.75;;;10.70;99.90;;;;;;5032913;28;20037;-76
2023/08/29 03:48:56;;;;;;;1.40;0.85;;;10.60;99.90;;;;;;5035746;28;20045;-76
2023/08/29 03:51:22;;;;;;;0.70;0.70;;;10.70;99.90;;;;;;5036033;28;20609;-77
2023/08/29 03:53:48;;;;;;;1.00;0.60;;;10.60;99.90;;;;;;5035954;28;20041;-76
2023/08/29 03:56:15;;;;;;;1.38;0.80;;;10.60;99.90;;;;;;5035543;28;20112;-76
2023/08/29 03:58:40;;;;;;;1.83;1.05;;;10.60;99.90;;;;;;5035568;28;20164;-76
2023/08/29 04:01:07;;;;;;;0.82;0.70;;;10.50;99.90;;;;;;5019422;28;20075;-76
2023/08/29 04:03:33;;;;;;;1.50;0.90;;;10.50;99.90;;;;;;5019031;28;20038;-76
2023/08/29 04:05:59;;;;;;;0.98;0.77;;;10.50;99.90;;;;;;5018978;28;20033;-76
2023/08/29 04:08:24;;;;;;;1.58;0.68;;;10.50;99.90;;;;;;5035670;28;20068;-76
2023/08/29 04:10:50;;;;;;;1.15;0.70;;;10.50;99.90;;;;;;5035402;28;20045;-77
2023/08/29 04:13:16;;;;;;;1.33;0.65;;;10.50;99.90;;;;;;5035358;28;20473;-76
2023/08/29 04:15:41;;;;;;;0.95;0.70;;;10.40;99.90;;;;;;5035236;28;20056;-76
2023/08/29 04:18:10;;;;;;;2.08;0.88;;;10.40;99.90;;;;;;5036302;28;20033;-76
2023/08/29 04:20:36;;;;;;;2.35;0.80;;;10.40;99.90;;;;;;5052095;28;20041;-77
2023/08/29 04:23:06;;;;;;;2.30;1.27;;;10.40;99.90;;;;;;5035352;28;20037;-77
2023/08/29 04:25:35;;;;;;;1.48;0.80;;;10.30;99.90;;;;;;5035390;28;20529;-76
2023/08/29 04:28:00;;;;;;;1.38;0.95;;;10.30;99.90;;;;;;5051780;28;20061;-76
2023/08/29 04:30:26;;;;;;;1.65;0.80;;;10.30;99.90;;;;;;5034985;28;20053;-76
2023/08/29 04:32:52;;;;;;;1.10;0.90;;;10.20;99.90;;;;;;5036506;28;20121;-76
2023/08/29 04:35:17;;;;;;;1.20;0.85;;;10.20;99.90;;;;;;5036334;28;20413;-77
2023/08/29 04:37:48;;;;;;;1.50;0.80;;;10.20;99.90;;;;;;5018649;28;20044;-76
2023/08/29 04:40:18;;;;;;;0.85;0.68;;;10.20;99.90;;;;;;5036175;28;20033;-77
2023/08/29 04:42:44;;;;;;;1.45;0.70;;;10.20;99.90;;;;;;5035081;28;20041;-76
2023/08/29 04:45:10;;;;;;;1.55;0.82;;;10.10;99.90;;;;;;5035963;28;20033;-77
2023/08/29 04:47:36;;;;;;;2.03;0.95;;;10.10;99.90;;;;;;5034888;28;20044;-77
2023/08/29 04:50:03;;;;;;;1.88;1.00;;;10.10;99.90;;;;;;5051564;28;20430;-76
2023/08/29 04:52:29;;;;;;;1.38;0.80;;;10.10;99.90;;;;;;5051539;28;20037;-76
2023/08/29 04:54:55;;;;;;;2.45;0.80;;;10.20;99.90;;;;;;5034810;28;20041;-76
2023/08/29 04:57:20;;;;;;;0.52;0.50;;;10.20;99.90;;;;;;5050841;28;20049;-76
2023/08/29 04:59:47;;;;;;;0.80;0.60;;;10.20;99.90;;;;;;5034190;28;20119;-77
2023/08/29 05:02:13;;;;;;;0.82;0.60;;;10.20;99.90;;;;;;5051417;28;20104;-76
2023/08/29 05:04:38;;;;;;;1.40;0.70;;;10.20;99.90;;;;;;5018242;28;20119;-76
2023/08/29 05:07:04;;;;;;;0.65;0.60;;;10.20;99.90;;;;;;5018099;28;20033;-76
2023/08/29 05:09:29;;;;;;;0.80;0.60;;;10.20;99.90;;;;;;5034281;28;20494;-76
2023/08/29 05:11:55;;;;;;;1.38;0.50;;;10.20;99.90;;;;;;5035586;28;20087;-76
2023/08/29 05:14:20;;;;;;;2.55;0.90;;;10.20;99.90;;;;;;5034163;28;20037;-76
2023/08/29 05:16:46;;;;;;;7.22;4.47;;;10.20;99.90;;;;;;5035590;28;20049;-76
2023/08/29 05:19:12;;;;;;;6.18;4.22;;;10.20;99.90;;;;;;5035475;28;20052;-76
2023/08/29 05:21:37;;;;;;;5.38;3.10;;;10.20;99.90;;;;;;5034416;28;20041;-76
2023/08/29 05:24:04;;;;;;;6.10;2.92;;;10.30;99.90;;;;;;5035429;28;20067;-76
2023/08/29 05:26:29;;;;;;;5.07;2.50;;;10.30;99.90;;;;;;5033964;28;20053;-76
2023/08/29 05:28:55;;;;;;;3.20;2.10;;;10.20;99.90;;;;;;5050686;28;20041;-76
2023/08/29 05:31:20;;;;;;;2.67;1.70;;;10.30;99.90;;;;;;5033924;28;20041;-76
2023/08/29 05:33:46;;;;;;;1.25;0.93;;;10.30;99.90;;;;;;5034173;28;20048;-76
2023/08/29 05:36:11;;;;;;;1.83;0.70;;;10.30;99.90;;;;;;5034041;28;20128;-76
2023/08/29 05:38:37;;;;;;;3.03;1.08;;;10.30;99.90;;;;;;5033848;28;20490;-77
2023/08/29 05:41:03;;;;;;;1.02;0.70;;;10.30;99.90;;;;;;5033892;28;20129;-76
2023/08/29 05:43:29;;;;;;;2.08;0.70;;;10.20;99.90;;;;;;5033917;28;20394;-76
2023/08/29 05:45:55;;;;;;;2.08;0.70;;;10.30;99.90;;;;;;5033961;28;20047;-76
2023/08/29 05:48:24;;;;;;;0.75;0.60;;;10.20;99.90;;;;;;5033862;28;20433;-76
2023/08/29 05:50:50;;;;;;;0.50;0.50;;;10.30;99.90;;;;;;5033853;28;20390;-76
2023/08/29 05:53:16;;;;;;;1.08;0.40;;;10.30;99.90;;;;;;5033564;28;20045;-76
2023/08/29 05:55:42;;;;;;;1.75;0.60;;;10.20;99.90;;;;;;5034725;28;20164;-76
2023/08/29 05:58:08;;;;;;;2.92;2.28;;;10.20;99.90;;;;;;5034392;28;20068;-76
2023/08/29 06:00:33;;;;;;;1.85;0.57;;;10.20;99.90;;;;;;5033320;28;20033;-76
2023/08/29 06:03:01;;;;;;;1.70;0.60;;;10.20;99.90;;;;;;5033311;28;20099;-76
2023/08/29 06:05:26;;;;;;;0.50;0.50;;;10.30;99.90;;;;;;5016731;28;20090;-76
2023/08/29 06:07:52;;;;;;;1.65;0.75;;;10.30;99.90;;;;;;5033238;28;20136;-76
2023/08/29 06:10:18;;;;;;;1.58;0.90;;;10.30;99.90;;;;;;5015609;28;20042;-76
2023/08/29 06:12:44;;;;;;;1.73;1.00;;;10.20;99.90;;;;;;5033396;28;20045;-76
2023/08/29 06:15:09;;;;;;;1.95;1.05;;;10.30;99.90;;;;;;5033143;28;20037;-77
2023/08/29 06:17:35;;;;;;;1.90;1.10;;;10.30;99.90;;;;;;5016461;28;20410;-77
2023/08/29 06:20:02;;;;;;;2.50;1.10;;;10.40;99.90;;;;;;5033003;28;20072;-77
2023/08/29 06:22:27;;;;;;;2.10;1.00;;;10.40;99.90;;;;;;5049683;28;20073;-77
2023/08/29 06:24:54;;;;;;;0.90;0.80;;;10.40;99.90;;;;;;5032985;28;20034;-76
2023/08/29 06:27:20;;;;;;;1.05;0.60;;;10.50;99.90;;;;;;5033766;28;20053;-77
2023/08/29 06:29:45;;;;;;;0.95;0.70;;;10.60;99.90;;;;;;5033069;28;20103;-77
2023/08/29 06:32:11;;;;;;;1.00;0.80;;;10.70;99.90;;;;;;5032771;28;20039;-77
2023/08/29 06:34:36;;;;;;;1.48;0.93;;;10.80;99.90;;;;;;5032681;28;20405;-77
2023/08/29 06:37:02;;;;;;;1.77;1.10;;;10.90;99.90;;;;;;5032638;28;20045;-77
2023/08/29 06:39:28;;;;;;;2.50;1.38;;;11.00;99.90;;;;;;5032716;28;20072;-77
2023/08/29 06:41:53;;;;;;;3.00;1.40;;;11.10;99.90;;;;;;5033895;28;20409;-76
2023/08/29 06:44:19;;;;;;;3.22;1.40;;;11.20;99.90;;;;;;5032708;28;20103;-77
2023/08/29 06:46:44;;;;;;;2.85;1.45;;;11.30;99.90;;;;;;5016353;28;20124;-76
2023/08/29 06:49:10;;;;;;;4.25;1.85;;;11.40;99.90;;;;;;5032755;28;20075;-77
2023/08/29 06:51:36;;;;;;;5.00;2.28;;;11.50;99.90;;;;;;5032575;28;20549;-77
2023/08/29 06:54:02;;;;;;;4.97;2.10;;;11.60;99.90;;;;;;5032596;28;20045;-76
2023/08/29 06:56:28;;;;;;;6.00;2.50;;;11.80;99.90;;;;;;5015780;28;20040;-76
2023/08/29 06:58:54;;;;;;;4.05;2.00;;;11.90;99.90;;;;;;5032113;28;20046;-76
2023/08/29 07:01:19;;;;;;;4.72;2.25;;;12.10;99.90;;;;;;5049141;28;20037;-76
2023/08/29 07:03:45;;;;;;;5.20;2.55;;;12.20;99.90;;;;;;5015634;28;20037;-76
2023/08/29 07:06:10;;;;;;;7.38;2.53;;;12.40;99.90;;;;;;5048816;28;20107;-76
2023/08/29 07:08:37;;;;;;;5.75;3.05;;;12.60;99.90;;;;;;5048718;28;20041;-76
2023/08/29 07:11:03;;;;;;;4.72;2.25;;;12.80;99.90;;;;;;5015587;28;20506;-76
2023/08/29 07:13:29;;;;;;;5.07;2.40;;;12.90;99.90;;;;;;5032041;28;20107;-76
2023/08/29 07:15:54;;;;;;;4.75;2.55;;;13.10;99.90;;;;;;5033489;28;20048;-76
2023/08/29 07:18:20;;;;;;;5.82;2.55;;;13.30;99.90;;;;;;5033219;28;20041;-76
2023/08/29 07:20:48;;;;;;;6.15;2.63;;;13.40;99.90;;;;;;5031580;28;20037;-76
2023/08/29 07:23:14;;;;;;;5.60;2.70;;;13.60;99.90;;;;;;5015490;28;20072;-76
2023/08/29 07:25:43;;;;;;;7.93;3.20;;;13.70;99.90;;;;;;5031844;28;20041;-77
2023/08/29 07:28:11;;;;;;;5.72;2.97;;;13.90;99.90;;;;;;5031753;28;20057;-76
2023/08/29 07:30:45;;;;;;;6.88;2.90;;;14.00;99.90;;;;;;5015672;28;20044;-76
2023/08/29 07:33:11;;;;;;;5.47;2.60;;;14.10;99.90;;;;;;5031911;28;20048;-76
2023/08/29 07:35:38;;;;;;;6.00;2.90;;;14.20;99.90;;;;;;5048455;28;20037;-77
2023/08/29 07:38:04;;;;;;;6.40;2.70;;;14.30;99.90;;;;;;5031571;28;20052;-76
2023/08/29 07:40:29;;;;;;;4.97;2.30;;;14.40;99.90;;;;;;5031795;28;20412;-77
2023/08/29 07:42:55;;;;;;;6.00;2.30;;;14.50;99.90;;;;;;5032016;28;20037;-76
2023/08/29 07:45:21;;;;;;;5.05;1.90;;;14.60;99.90;;;;;;5015270;28;20486;-78
2023/08/29 07:47:47;;;;;;;4.30;2.00;;;14.60;99.90;;;;;;5031576;28;20500;-76
2023/08/29 07:50:13;;;;;;;2.83;1.65;;;14.70;99.90;;;;;;5031919;28;20049;-77
2023/08/29 07:52:38;;;;;;;3.95;1.80;;;14.80;99.90;;;;;;5015187;28;20087;-76
2023/08/29 07:55:05;;;;;;;4.72;2.10;;;14.80;99.90;;;;;;5031629;28;20100;-77
2023/08/29 07:57:31;;;;;;;4.28;1.80;;;14.90;99.90;;;;;;5015273;28;20507;-77
2023/08/29 07:59:57;;;;;;;4.07;1.73;;;15.00;99.90;;;;;;5031833;28;20073;-77
2023/08/29 08:02:22;;;;;;;5.63;1.75;;;15.00;99.90;;;;;;5048303;28;20091;-77
2023/08/29 08:04:48;;;;;;;4.65;1.65;;;15.10;99.90;;;;;;5031634;28;20112;-77
2023/08/29 08:07:13;;;;;;;4.00;1.70;;;15.20;99.90;;;;;;5031436;28;20100;-77
2023/08/29 08:09:40;;;;;;;3.55;1.40;;;15.30;99.90;;;;;;5031430;28;20073;-77
2023/08/29 08:12:06;;;;;;;2.55;1.40;;;15.30;99.90;;;;;;5048436;28;20415;-77
2023/08/29 08:14:32;;;;;;;3.38;1.30;;;15.40;99.90;;;;;;5032822;28;20037;-77
2023/08/29 08:16:58;;;;;;;2.78;1.20;;;15.50;99.90;;;;;;5031432;28;20046;-77
2023/08/29 08:19:24;;;;;;;4.88;1.42;;;15.50;99.90;;;;;;5031322;28;20111;-77
2023/08/29 08:21:50;;;;;;;4.22;1.38;;;15.60;99.90;;;;;;5014907;28;20044;-77
2023/08/29 08:24:16;;;;;;;2.15;1.25;;;15.70;99.90;;;;;;5031429;28;20038;-77
2023/08/29 08:26:42;;;;;;;3.00;1.25;;;15.80;99.90;;;;;;5031169;28;20054;-77
2023/08/29 08:29:07;;;;;;;2.25;1.20;;;15.90;99.90;;;;;;5031578;28;20041;-77
2023/08/29 08:31:33;;;;;;;3.25;1.15;;;16.00;99.90;;;;;;5048038;28;20485;-77
2023/08/29 08:33:58;;;;;;;2.72;1.20;;;16.00;99.90;;;;;;5016941;28;20053;-77
2023/08/29 08:36:24;;;;;;;3.30;1.10;;;16.00;99.90;;;;;;5034874;28;20083;-77
2023/08/29 08:38:50;;;;;;;2.78;1.02;;;16.10;99.90;;;;;;5034895;28;20038;-77
2023/08/29 08:41:18;;;;;;;2.85;1.00;;;16.20;99.90;;;;;;5035107;28;20041;-78
2023/08/29 08:43:44;;;;;;;2.88;1.13;;;16.40;99.90;;;;;;5036002;28;20498;-78
2023/08/29 08:46:14;;;;;;;4.10;1.20;;;16.40;99.90;;;;;;5034884;28;20116;-78
2023/08/29 08:48:40;;;;;;;2.42;1.00;;;16.60;99.90;;;;;;5035915;28;20041;-77
2023/08/29 08:51:08;;;;;;;1.95;1.00;;;16.70;99.90;;;;;;5034619;28;20064;-78
2023/08/29 08:53:36;;;;;;;3.53;1.08;;;16.80;99.90;;;;;;5036079;28;20450;-78
2023/08/29 08:56:03;;;;;;;4.30;1.20;;;16.90;99.90;;;;;;5051437;28;20037;-78
2023/08/29 08:58:28;;;;;;;3.05;1.23;;;17.00;99.90;;;;;;5034403;28;20103;-79
2023/08/29 09:00:55;;;;;;;2.78;1.08;;;17.00;99.90;;;;;;5034521;28;20037;-78
2023/08/29 09:03:20;;;;;;;3.20;1.00;;;17.00;99.90;;;;;;5034600;28;20092;-78
2023/08/29 09:05:46;;;;;;;2.10;1.00;;;17.00;99.90;;;;;;5034424;28;20034;-78
2023/08/29 09:08:11;;;;;;;2.83;0.95;;;17.10;99.90;;;;;;5051189;28;20669;-79
2023/08/29 09:10:40;;;;;;;4.65;1.10;;;17.20;99.90;;;;;;5035758;28;20046;-78
2023/08/29 09:13:06;;;;;;;2.72;1.30;;;17.20;99.90;;;;;;5034281;28;20045;-78
2023/08/29 09:15:34;;;;;;;2.22;1.00;;;17.30;99.90;;;;;;5034248;28;20044;-78
2023/08/29 09:18:00;;;;;;;1.02;0.93;;;17.40;99.90;;;;;;5033992;28;20071;-79
2023/08/29 09:20:29;;;;;;;3.65;1.10;;;17.60;99.90;;;;;;5034107;28;20087;-79
2023/08/29 09:22:55;;;;;;;4.25;1.10;;;17.70;99.90;;;;;;5034051;28;20116;-79
2023/08/29 09:25:20;;;;;;;1.92;0.98;;;17.90;99.90;;;;;;5017508;28;20075;-79
2023/08/29 09:27:47;;;;;;;2.60;0.80;;;17.90;99.90;;;;;;5034074;28;20057;-79
2023/08/29 09:30:16;;;;;;;2.55;0.80;;;17.90;99.90;;;;;;5050471;28;20057;-78
2023/08/29 09:32:46;;;;;;;1.80;0.90;;;17.90;99.90;;;;;;5033991;28;20394;-78
2023/08/29 09:35:14;;;;;;;4.03;1.35;;;17.90;99.90;;;;;;5033877;28;20048;-79
2023/08/29 09:37:42;;;;;;;3.05;1.00;;;17.90;99.90;;;;;;5035243;28;20048;-78
2023/08/29 09:40:09;;;;;;;2.40;0.90;;;17.90;99.90;;;;;;5017255;28;20040;-79
2023/08/29 09:42:35;;;;;;;2.22;0.88;;;17.90;99.90;;;;;;5033905;28;20065;-78
2023/08/29 09:45:01;;;;;;;4.47;1.00;;;17.90;99.90;;;;;;5033319;28;20142;-78
2023/08/29 09:47:29;;;;;;;3.58;1.10;;;18.00;99.90;;;;;;5033672;28;20037;-79
2023/08/29 09:49:54;;;;;;;3.60;1.10;;;17.90;99.90;;;;;;5016954;28;20481;-78
2023/08/29 09:52:21;;;;;;;3.20;1.15;;;17.90;99.90;;;;;;5033530;28;20033;-78
2023/08/29 09:54:51;;;;;;;3.65;1.00;;;17.90;99.90;;;;;;5034888;28;20083;-78
2023/08/29 09:57:21;;;;;;;2.30;1.15;;;17.80;99.90;;;;;;5033518;28;20068;-78
2023/08/29 09:59:50;;;;;;;2.20;1.02;;;17.80;99.90;;;;;;5033253;28;20048;-78
2023/08/29 10:02:18;;;;;;;1.48;0.95;;;17.70;99.90;;;;;;5033550;28;20045;-78
2023/08/29 10:04:54;;;;;;;2.13;1.08;;;17.70;99.90;;;;;;5033600;28;20436;-78
2023/08/29 10:07:25;;;;;;;1.73;1.10;;;17.60;99.90;;;;;;5017097;28;20490;-78
2023/08/29 10:09:51;;;;;;;1.58;0.90;;;17.60;99.90;;;;;;5016776;28;20045;-78
2023/08/29 10:12:18;;;;;;;2.40;1.02;;;17.50;99.90;;;;;;5049695;28;20125;-78
2023/08/29 10:14:45;;;;;;;2.50;1.20;;;17.50;99.90;;;;;;5016634;28;20128;-78
2023/08/29 10:17:12;;;;;;;3.20;1.25;;;17.50;99.90;;;;;;5033100;28;20041;-78
2023/08/29 10:19:39;;;;;;;2.85;1.10;;;17.40;99.90;;;;;;5034456;28;20436;-78
2023/08/29 10:22:07;;;;;;;4.70;1.60;;;17.40;99.90;;;;;;5033128;28;20508;-78
2023/08/29 10:24:35;;;;;;;3.00;1.35;;;17.50;99.90;;;;;;5016663;28;20049;-78
2023/08/29 10:27:02;;;;;;;3.25;1.08;;;17.50;99.90;;;;;;5033968;28;20058;-78
2023/08/29 10:29:29;;;;;;;2.83;1.10;;;17.50;99.90;;;;;;5049373;28;20094;-78
2023/08/29 10:31:55;;;;;;;2.22;1.10;;;17.50;99.90;;;;;;5032843;28;20053;-78
2023/08/29 10:34:21;;;;;;;1.58;0.90;;;17.50;99.90;;;;;;5032947;28;20168;-78
2023/08/29 10:36:47;;;;;;;2.10;1.10;;;17.50;99.90;;;;;;5033006;28;20079;-78
2023/08/29 10:39:14;;;;;;;2.45;1.15;;;17.50;99.90;;;;;;5032575;28;20045;-78
2023/08/29 10:41:46;;;;;;;3.50;1.25;;;17.50;99.90;;;;;;5032917;28;20060;-78
2023/08/29 10:44:40;;;;;;;3.17;1.20;;;17.50;99.90;;;;;;5016571;28;20037;-78
2023/08/29 10:47:19;;;;;;;1.88;1.10;;;17.60;99.90;;;;;;5032585;28;20493;-78
2023/08/29 10:49:46;;;;;;;3.17;1.00;;;17.60;99.90;;;;;;5032456;28;20048;-78
2023/08/29 10:52:13;;;;;;;3.85;1.20;;;17.60;99.90;;;;;;5032407;28;20494;-78
2023/08/29 10:54:40;;;;;;;2.28;1.10;;;17.70;99.90;;;;;;5032402;28;20052;-78
2023/08/29 10:57:25;;;;;;;1.75;0.95;;;17.80;99.90;;;;;;5031767;28;20056;-78
2023/08/29 10:59:52;;;;;;;3.47;1.10;;;17.90;99.90;;;;;;5032253;28;20116;-79
2023/08/29 11:02:25;;;;;;;2.05;1.17;;;17.90;99.90;;;;;;5032155;28;20037;-78
2023/08/29 11:04:52;;;;;;;2.65;1.30;;;17.90;99.90;;;;;;5032524;28;20493;-78
2023/08/29 11:07:28;;;;;;;2.33;1.10;;;18.00;99.90;;;;;;5049044;28;20037;-78
2023/08/29 11:10:13;;;;;;;4.15;1.40;;;18.00;99.90;;;;;;5032470;28;20103;-78
2023/08/29 11:13:07;;;;;;;2.70;1.25;;;18.00;99.90;;;;;;5032108;28;20041;-78
2023/08/29 11:15:51;;;;;;;3.20;1.15;;;18.00;99.90;;;;;;5048937;28;20042;-79
2023/08/29 11:18:34;;;;;;;1.98;1.10;;;18.20;99.90;;;;;;5031973;28;20041;-79
2023/08/29 11:21:07;;;;;;;2.85;1.40;;;18.40;99.90;;;;;;5031908;28;20037;-79
2023/08/29 11:23:38;;;;;;;2.83;1.60;;;18.40;99.90;;;;;;5015574;28;20051;-78
2023/08/29 11:26:04;;;;;;;4.13;1.30;;;18.40;99.90;;;;;;5015564;28;20037;-78
2023/08/29 11:28:37;;;;;;;2.70;1.65;;;18.30;99.90;;;;;;5048485;28;20056;-78
2023/08/29 11:31:04;;;;;;;3.70;1.40;;;18.30;99.90;;;;;;5033183;28;20045;-78
2023/08/29 11:33:34;;;;;;;4.38;1.40;;;18.30;99.90;;;;;;5033033;28;20042;-78
2023/08/29 11:36:02;;;;;;;3.08;1.48;;;18.30;99.90;;;;;;5015392;28;20099;-79
2023/08/29 11:38:29;;;;;;;2.17;1.10;;;18.40;99.90;;;;;;5015508;28;20060;-78
2023/08/29 11:40:56;;;;;;;4.53;1.30;;;18.30;99.90;;;;;;5032930;28;20517;-78
2023/08/29 11:43:25;;;;;;;2.95;1.17;;;18.30;99.90;;;;;;5048472;28;20033;-78
2023/08/29 11:45:58;;;;;;;3.38;1.40;;;18.20;99.90;;;;;;5031722;28;20417;-78
2023/08/29 11:48:28;;;;;;;2.58;1.10;;;18.20;99.90;;;;;;5033132;28;20076;-78
2023/08/29 11:51:01;;;;;;;2.13;1.25;;;18.20;99.90;;;;;;5015344;28;20079;-78
2023/08/29 11:53:30;;;;;;;2.88;1.10;;;18.20;99.90;;;;;;5048368;28;20084;-78
2023/08/29 11:55:56;;;;;;;3.70;1.20;;;18.10;99.90;;;;;;5031871;28;20048;-78
2023/08/29 11:58:36;;;;;;;2.55;1.10;;;18.00;99.90;;;;;;5031493;28;20042;-78
2023/08/29 12:01:07;;;;;;;2.25;1.02;;;18.00;99.90;;;;;;5031628;28;20045;-78
2023/08/29 12:03:37;;;;;;;2.35;1.08;;;18.00;99.90;;;;;;5031565;28;20052;-78
2023/08/29 12:06:09;;;;;;;4.35;1.25;;;17.90;99.90;;;;;;5031592;28;20120;-78
2023/08/29 12:08:42;;;;;;;4.07;1.02;;;17.90;99.90;;;;;;5034528;28;20041;-78
2023/08/29 12:11:10;;;;;;;1.67;0.90;;;17.90;99.90;;;;;;5035464;28;20107;-77
2023/08/29 12:13:36;;;;;;;3.15;1.08;;;17.90;99.90;;;;;;5035672;28;20041;-78
2023/08/29 12:16:14;;;;;;;2.45;1.02;;;17.90;99.90;;;;;;5018934;28;20049;-77
2023/08/29 12:18:40;;;;;;;2.97;1.00;;;17.90;99.90;;;;;;5036583;28;20099;-78
2023/08/29 12:21:20;;;;;;;1.77;0.80;;;17.80;99.90;;;;;;5018743;28;20033;-77
2023/08/29 12:23:45;;;;;;;2.97;1.08;;;17.80;99.90;;;;;;5018703;28;20493;-78
2023/08/29 12:26:12;;;;;;;2.20;1.10;;;17.80;99.90;;;;;;5018481;28;20044;-77
2023/08/29 12:28:38;;;;;;;2.13;1.00;;;17.80;99.90;;;;;;5035406;28;20045;-78
2023/08/29 12:31:04;;;;;;;2.90;0.95;;;17.90;99.90;;;;;;5018613;28;20171;-79
2023/08/29 12:33:30;;;;;;;3.80;1.20;;;18.00;99.90;;;;;;5034998;28;20095;-78
2023/08/29 12:35:56;;;;;;;2.65;0.93;;;18.10;99.90;;;;;;5035198;28;20428;-78
2023/08/29 12:38:23;;;;;;;3.70;1.33;;;18.10;99.90;;;;;;5034839;28;20128;-79
2023/08/29 12:40:49;;;;;;;4.45;1.50;;;18.10;99.90;;;;;;5034873;28;20037;-78
2023/08/29 12:43:16;;;;;;;1.60;1.00;;;18.10;99.90;;;;;;5034866;28;20452;-78
2023/08/29 12:45:44;;;;;;;2.20;0.90;;;18.10;99.90;;;;;;5034866;28;20041;-78
2023/08/29 12:48:10;;;;;;;2.05;0.95;;;18.00;99.90;;;;;;5034713;28;20045;-78